Time;durP1;ratioP1;P1;durP2;ratioP2;P2;SDS_P1;SDS_P2;PMS_P1;PMS_P2;Temp;Humidity;BMP_temperature;BMP_pressure;BME280_temperature;BME280_humidity;BME280_pressure;Samples;Min_cycle;Max_cycle;Signal;HPM_P1;HPM_P2
2022/06/06 00:03:06;;;;;;;3.78;2.53;;;;;;;;;;10432524;28;20028;-74
2022/06/06 00:08:06;;;;;;;4.53;3.20;;;;;;;;;;10432666;28;20044;-71
2022/06/06 00:13:07;;;;;;;8.80;3.63;;;;;;;;;;10432164;28;20017;-72
2022/06/06 00:18:07;;;;;;;10.82;3.63;;;;;;;;;;10431503;28;20438;-75
2022/06/06 00:23:08;;;;;;;5.88;3.08;;;;;;;;;;10449131;28;20094;-73
2022/06/06 00:28:08;;;;;;;4.38;3.35;;;;;;;;;;10431892;28;20021;-71
2022/06/06 00:38:29;;;;;;;6.60;3.28;;;;;;;;;;10449302;28;20021;-73
2022/06/06 00:43:29;;;;;;;3.97;3.13;;;;;;;;;;10431315;28;20021;-74
2022/06/06 00:48:36;;;;;;;4.85;2.92;;;;;;;;;;10430989;28;20021;-73
2022/06/06 00:53:39;;;;;;;4.40;3.35;;;;;;;;;;10456298;28;20027;-73
2022/06/06 00:58:40;;;;;;;7.05;3.33;;;;;;;;;;10470420;28;20032;-72
2022/06/06 01:03:41;;;;;;;7.53;3.60;;;;;;;;;;10487836;28;20529;-72
2022/06/06 01:08:42;;;;;;;8.00;3.55;;;;;;;;;;10470527;28;20051;-72
2022/06/06 01:13:45;;;;;;;7.93;3.65;;;;;;;;;;10469681;28;20023;-71
2022/06/06 01:18:51;;;;;;;11.13;3.65;;;;;;;;;;10469718;28;20486;-71
2022/06/06 01:24:10;;;;;;;6.18;3.70;;;;;;;;;;10469336;28;20103;-75
2022/06/06 01:29:34;;;;;;;5.38;3.30;;;;;;;;;;10486047;28;20025;-72
2022/06/06 01:34:36;;;;;;;6.53;3.03;;;;;;;;;;10469054;28;20409;-71
2022/06/06 01:39:36;;;;;;;3.88;2.88;;;;;;;;;;10468694;28;20031;-71
2022/06/06 01:44:50;;;;;;;3.92;3.22;;;;;;;;;;10468688;28;20017;-73
2022/06/06 01:49:50;;;;;;;11.52;4.78;;;;;;;;;;10468637;28;20086;-73
2022/06/06 01:54:55;;;;;;;15.38;6.47;;;;;;;;;;10468160;28;20028;-73
2022/06/06 01:59:57;;;;;;;18.15;7.78;;;;;;;;;;10468253;28;20019;-74
2022/06/06 02:04:57;;;;;;;17.10;7.97;;;;;;;;;;10448333;28;20053;-71
2022/06/06 02:09:57;;;;;;;16.85;8.65;;;;;;;;;;10427994;28;20550;-75
2022/06/06 02:14:57;;;;;;;26.50;7.00;;;;;;;;;;10443382;28;20112;-71
2022/06/06 02:19:58;;;;;;;19.40;6.90;;;;;;;;;;10427047;28;20029;-71
2022/06/06 02:24:58;;;;;;;19.20;6.25;;;;;;;;;;10427236;28;20028;-73
2022/06/06 02:29:59;;;;;;;13.43;5.40;;;;;;;;;;10427357;28;20119;-71
2022/06/06 02:34:59;;;;;;;13.27;4.85;;;;;;;;;;10427199;28;20028;-72
2022/06/06 02:39:59;;;;;;;22.42;8.07;;;;;;;;;;10426919;28;20066;-73
2022/06/06 02:45:00;;;;;;;18.90;8.05;;;;;;;;;;10443200;28;20420;-71
2022/06/06 02:50:00;;;;;;;18.45;9.80;;;;;;;;;;10426690;28;20119;-73
2022/06/06 02:55:01;;;;;;;17.58;8.13;;;;;;;;;;10443223;28;20017;-73
2022/06/06 03:00:03;;;;;;;16.20;6.70;;;;;;;;;;10442005;28;20020;-71
2022/06/06 03:05:04;;;;;;;18.60;9.00;;;;;;;;;;10469872;28;20060;-72
2022/06/06 03:10:22;;;;;;;23.17;8.88;;;;;;;;;;10431258;28;20409;-73
2022/06/06 03:15:26;;;;;;;22.15;9.88;;;;;;;;;;10426453;28;20029;-73
2022/06/06 03:20:47;;;;;;;22.60;9.15;;;;;;;;;;10426033;28;20108;-71
2022/06/06 03:26:06;;;;;;;19.92;8.85;;;;;;;;;;10430241;28;20032;-76
2022/06/06 03:31:13;;;;;;;22.15;10.68;;;;;;;;;;10434622;28;20025;-72
2022/06/06 03:36:19;;;;;;;20.60;10.07;;;;;;;;;;10451798;28;20483;-72
2022/06/06 03:41:19;;;;;;;17.95;10.35;;;;;;;;;;10416795;28;20491;-72
2022/06/06 03:46:44;;;;;;;16.55;9.35;;;;;;;;;;10433482;28;20028;-73
2022/06/06 03:51:59;;;;;;;24.10;11.15;;;;;;;;;;10446423;28;20120;-75
2022/06/06 03:57:14;;;;;;;19.42;13.27;;;;;;;;;;10484769;28;20418;-75
2022/06/06 04:02:17;;;;;;;20.00;11.90;;;;;;;;;;10432687;28;20025;-71
2022/06/06 04:07:17;;;;;;;25.88;13.52;;;;;;;;;;10450146;28;20523;-71
2022/06/06 04:12:17;;;;;;;26.07;12.77;;;;;;;;;;10467300;28;20025;-72
2022/06/06 04:17:18;;;;;;;21.60;11.55;;;;;;;;;;10454627;28;20781;-74
2022/06/06 04:22:18;;;;;;;19.67;11.45;;;;;;;;;;10445432;28;20020;-71
2022/06/06 04:27:37;;;;;;;20.20;10.98;;;;;;;;;;10471721;28;20143;-70
2022/06/06 04:32:45;;;;;;;24.25;11.20;;;;;;;;;;10471981;28;20028;-71
2022/06/06 04:38:05;;;;;;;16.98;11.43;;;;;;;;;;10430278;28;20482;-72
2022/06/06 04:43:05;;;;;;;22.58;12.02;;;;;;;;;;10430229;28;20025;-71
2022/06/06 04:48:06;;;;;;;23.13;11.38;;;;;;;;;;10430832;28;20025;-71
2022/06/06 04:53:08;;;;;;;18.90;10.02;;;;;;;;;;10430528;28;20025;-72
2022/06/06 04:58:09;;;;;;;20.10;10.20;;;;;;;;;;10430147;28;20021;-70
2022/06/06 05:03:09;;;;;;;15.07;9.38;;;;;;;;;;10430009;28;20029;-72
2022/06/06 05:08:15;;;;;;;16.30;8.53;;;;;;;;;;10429706;28;20027;-75
2022/06/06 05:13:19;;;;;;;21.38;11.30;;;;;;;;;;10430050;28;20514;-70
2022/06/06 05:18:22;;;;;;;17.45;9.95;;;;;;;;;;10446937;28;20032;-72
2022/06/06 05:23:28;;;;;;;16.35;8.70;;;;;;;;;;10428799;28;20187;-71
2022/06/06 05:28:41;;;;;;;19.23;9.63;;;;;;;;;;10428725;28;20047;-72
2022/06/06 05:33:45;;;;;;;18.13;8.35;;;;;;;;;;10429234;28;20029;-70
2022/06/06 05:38:45;;;;;;;17.25;8.90;;;;;;;;;;10428348;28;20051;-71
2022/06/06 05:43:48;;;;;;;17.05;8.80;;;;;;;;;;10428106;28;20111;-70
2022/06/06 05:49:07;;;;;;;19.00;6.65;;;;;;;;;;10427971;28;20441;-71
2022/06/06 05:54:21;;;;;;;10.48;6.82;;;;;;;;;;10427822;28;20021;-71
2022/06/06 05:59:24;;;;;;;18.75;6.20;;;;;;;;;;10427811;28;20504;-75
2022/06/06 06:04:44;;;;;;;12.73;5.72;;;;;;;;;;10461501;28;20544;-74
2022/06/06 06:09:47;;;;;;;13.18;5.20;;;;;;;;;;10451719;28;20029;-72
2022/06/06 06:15:06;;;;;;;8.30;4.13;;;;;;;;;;10427186;28;20112;-72
2022/06/06 06:20:11;;;;;;;7.47;2.83;;;;;;;;;;10426806;28;20029;-72
2022/06/06 06:25:14;;;;;;;12.70;4.05;;;;;;;;;;10426577;28;20029;-70
2022/06/06 06:30:14;;;;;;;12.18;4.55;;;;;;;;;;10443264;28;20021;-71
2022/06/06 06:35:24;;;;;;;12.65;5.15;;;;;;;;;;10426505;28;20949;-72
2022/06/06 06:40:46;;;;;;;20.50;5.80;;;;;;;;;;10427373;28;20029;-74
2022/06/06 06:45:50;;;;;;;15.95;6.30;;;;;;;;;;10411995;28;20048;-71
2022/06/06 06:50:51;;;;;;;12.82;7.25;;;;;;;;;;10465439;28;20023;-73
2022/06/06 06:56:04;;;;;;;18.70;7.65;;;;;;;;;;10434038;28;20586;-73
2022/06/06 07:01:12;;;;;;;15.82;5.72;;;;;;;;;;10426555;28;20108;-72
2022/06/06 07:11:36;;;;;;;12.77;4.75;;;;;;;;;;10403298;28;20030;-72
2022/06/06 07:16:38;;;;;;;17.27;5.07;;;;;;;;;;10385071;28;20025;-74
2022/06/06 07:21:39;;;;;;;17.33;5.68;;;;;;;;;;10384400;28;20021;-71
2022/06/06 07:26:41;;;;;;;19.92;5.65;;;;;;;;;;10385277;28;20549;-71
2022/06/06 07:32:01;;;;;;;18.58;7.30;;;;;;;;;;10401161;28;20689;-74
2022/06/06 07:37:21;;;;;;;14.60;6.05;;;;;;;;;;10384895;28;20487;-70
2022/06/06 07:42:36;;;;;;;10.50;5.68;;;;;;;;;;10403070;28;20101;-72
2022/06/06 07:47:39;;;;;;;17.95;7.55;;;;;;;;;;10384890;28;20464;-72
2022/06/06 07:52:39;;;;;;;12.45;5.43;;;;;;;;;;10384130;28;20033;-71
2022/06/06 07:57:46;;;;;;;16.05;5.95;;;;;;;;;;10402703;28;20431;-72
2022/06/06 08:02:50;;;;;;;21.75;6.50;;;;;;;;;;10384437;28;20044;-71
2022/06/06 08:07:59;;;;;;;22.05;6.72;;;;;;;;;;10426158;28;20077;-72
2022/06/06 08:13:12;;;;;;;15.25;5.80;;;;;;;;;;10429178;28;20485;-71
2022/06/06 08:18:18;;;;;;;13.77;4.50;;;;;;;;;;10449846;28;20083;-72
2022/06/06 08:23:19;;;;;;;17.53;4.63;;;;;;;;;;10432042;28;20033;-76
2022/06/06 08:28:20;;;;;;;13.55;4.68;;;;;;;;;;10431949;28;20090;-72
2022/06/06 08:33:21;;;;;;;9.35;3.40;;;;;;;;;;10431585;28;20495;-72
2022/06/06 08:38:24;;;;;;;13.90;4.25;;;;;;;;;;10431759;28;20108;-72
2022/06/06 08:43:43;;;;;;;13.25;3.63;;;;;;;;;;10431962;28;20072;-72
2022/06/06 08:48:43;;;;;;;14.77;4.30;;;;;;;;;;10431189;28;20029;-72
2022/06/06 08:53:44;;;;;;;15.70;5.13;;;;;;;;;;10430957;28;20021;-72
2022/06/06 08:58:47;;;;;;;9.25;3.30;;;;;;;;;;10430858;28;20558;-71
2022/06/06 09:03:58;;;;;;;8.00;2.20;;;;;;;;;;10430210;28;20063;-71
2022/06/06 09:09:18;;;;;;;9.30;3.25;;;;;;;;;;10430057;28;20025;-71
2022/06/06 09:14:18;;;;;;;6.40;2.55;;;;;;;;;;10430335;28;20047;-73
2022/06/06 09:19:18;;;;;;;7.95;3.50;;;;;;;;;;10447714;28;20029;-73
2022/06/06 09:24:18;;;;;;;12.32;3.60;;;;;;;;;;10447017;28;20031;-69
2022/06/06 09:29:19;;;;;;;8.98;3.85;;;;;;;;;;10429333;28;20032;-71
2022/06/06 09:34:37;;;;;;;7.90;3.47;;;;;;;;;;10429446;28;20025;-70
2022/06/06 09:39:37;;;;;;;10.55;4.38;;;;;;;;;;10446830;28;20086;-71
2022/06/06 09:44:57;;;;;;;9.38;4.88;;;;;;;;;;10428966;28;20029;-69
2022/06/06 09:50:12;;;;;;;9.98;4.40;;;;;;;;;;10428607;28;20036;-74
2022/06/06 10:00:38;;;;;;;7.68;3.40;;;;;;;;;;10446665;28;20028;-72
2022/06/06 10:05:44;;;;;;;3.75;2.65;;;;;;;;;;10457168;28;20079;-70
2022/06/06 10:10:56;;;;;;;7.88;2.42;;;;;;;;;;10474039;28;20035;-72
2022/06/06 10:15:57;;;;;;;5.38;1.92;;;;;;;;;;10445626;28;20044;-72
2022/06/06 10:21:10;;;;;;;5.43;2.53;;;;;;;;;;10427423;28;20086;-75
2022/06/06 10:26:29;;;;;;;4.35;1.88;;;;;;;;;;10427440;28;20068;-76
2022/06/06 10:31:32;;;;;;;3.50;2.35;;;;;;;;;;10444917;28;20025;-77
2022/06/06 10:36:51;;;;;;;4.00;2.25;;;;;;;;;;10425843;28;20028;-71
2022/06/06 10:42:10;;;;;;;3.45;1.90;;;;;;;;;;10444768;28;20031;-72
2022/06/06 10:47:29;;;;;;;4.07;2.72;;;;;;;;;;10426626;28;20079;-71
2022/06/06 10:52:48;;;;;;;8.88;3.10;;;;;;;;;;10426699;28;20051;-71
2022/06/06 10:57:48;;;;;;;8.13;2.95;;;;;;;;;;10444038;28;20029;-74
2022/06/06 11:03:12;;;;;;;7.25;3.10;;;;;;;;;;10425798;28;20643;-70
2022/06/06 11:08:15;;;;;;;6.95;3.55;;;;;;;;;;10389365;28;20045;-72
2022/06/06 11:13:21;;;;;;;7.13;3.20;;;;;;;;;;10443652;28;20025;-71
2022/06/06 11:18:29;;;;;;;5.32;2.63;;;;;;;;;;10425933;28;20454;-73
2022/06/06 11:23:30;;;;;;;7.20;2.60;;;;;;;;;;10425948;28;20029;-71
2022/06/06 11:28:49;;;;;;;6.38;3.53;;;;;;;;;;10425688;28;20035;-76
2022/06/06 11:33:55;;;;;;;5.47;2.72;;;;;;;;;;10425101;28;20411;-69
2022/06/06 11:38:58;;;;;;;6.22;3.08;;;;;;;;;;10425375;28;20021;-71
2022/06/06 11:44:04;;;;;;;5.22;3.35;;;;;;;;;;10424994;28;20039;-71
2022/06/06 11:49:27;;;;;;;7.38;3.58;;;;;;;;;;10451172;28;20025;-71
2022/06/06 11:54:46;;;;;;;5.13;3.70;;;;;;;;;;10432983;28;20390;-71
2022/06/06 11:59:55;;;;;;;9.95;4.25;;;;;;;;;;10409658;28;20034;-70
2022/06/06 12:04:58;;;;;;;9.52;3.78;;;;;;;;;;10427344;28;20429;-75
2022/06/06 12:09:59;;;;;;;5.55;3.47;;;;;;;;;;10432244;28;20024;-71
2022/06/06 12:14:59;;;;;;;8.75;3.75;;;;;;;;;;10432794;28;20021;-71
2022/06/06 12:20:02;;;;;;;7.32;4.03;;;;;;;;;;10431913;28;20024;-70
2022/06/06 12:25:21;;;;;;;9.52;4.00;;;;;;;;;;10431771;28;20029;-71
2022/06/06 12:30:40;;;;;;;10.75;3.97;;;;;;;;;;10431659;28;20495;-78
2022/06/06 12:35:50;;;;;;;4.25;3.30;;;;;;;;;;10431049;28;20020;-69
2022/06/06 12:40:54;;;;;;;5.30;2.90;;;;;;;;;;10410539;28;20087;-72
2022/06/06 12:46:03;;;;;;;6.47;3.38;;;;;;;;;;10436275;28;20546;-72
2022/06/06 12:51:10;;;;;;;8.90;3.38;;;;;;;;;;10431090;28;20422;-69
2022/06/06 12:56:17;;;;;;;6.70;3.70;;;;;;;;;;10420224;28;20025;-69
2022/06/06 13:01:38;;;;;;;8.48;3.15;;;;;;;;;;10435269;28;20025;-71
2022/06/06 13:06:42;;;;;;;10.35;3.30;;;;;;;;;;10426360;28;20731;-70
2022/06/06 13:12:01;;;;;;;5.50;2.95;;;;;;;;;;10432570;28;20021;-70
2022/06/06 13:17:31;;;;;;;4.97;2.83;;;;;;;;;;10424247;28;20032;-70
2022/06/06 13:22:39;;;;;;;3.92;2.63;;;;;;;;;;10386754;28;20072;-72
2022/06/06 13:27:39;;;;;;;4.90;3.17;;;;;;;;;;10416627;28;20024;-71
2022/06/06 13:32:46;;;;;;;7.20;3.83;;;;;;;;;;10428575;28;20390;-70
2022/06/06 13:38:19;;;;;;;7.47;3.85;;;;;;;;;;10419329;28;20086;-74
2022/06/06 13:43:32;;;;;;;4.63;3.40;;;;;;;;;;10365991;28;20080;-70
2022/06/06 13:48:42;;;;;;;6.22;3.63;;;;;;;;;;10399445;28;20129;-72
2022/06/06 13:54:00;;;;;;;12.80;5.78;;;;;;;;;;10431895;28;20060;-71
2022/06/06 13:59:19;;;;;;;12.50;5.00;;;;;;;;;;10422185;28;20091;-71
2022/06/06 14:04:20;;;;;;;8.70;5.07;;;;;;;;;;10419346;28;20457;-78
2022/06/06 14:09:34;;;;;;;7.07;4.68;;;;;;;;;;10408743;28;20029;-71
2022/06/06 14:14:35;;;;;;;7.03;4.10;;;;;;;;;;10428578;28;20029;-70
2022/06/06 14:19:56;;;;;;;9.23;4.50;;;;;;;;;;10419204;28;20029;-71
2022/06/06 14:24:58;;;;;;;11.40;5.85;;;;;;;;;;10414043;28;20037;-71
2022/06/06 14:30:05;;;;;;;8.93;4.85;;;;;;;;;;10427768;28;20021;-71
2022/06/06 14:35:15;;;;;;;7.32;4.88;;;;;;;;;;10424632;28;20075;-75
2022/06/06 14:40:30;;;;;;;9.63;4.47;;;;;;;;;;10427102;28;20128;-73
2022/06/06 14:45:32;;;;;;;6.57;4.25;;;;;;;;;;10401935;28;20494;-71
2022/06/06 14:50:45;;;;;;;7.55;4.13;;;;;;;;;;10430465;28;20491;-72
2022/06/06 14:55:47;;;;;;;8.93;5.05;;;;;;;;;;10424599;28;20119;-70
2022/06/06 15:00:53;;;;;;;11.57;4.50;;;;;;;;;;10416157;28;20414;-71
2022/06/06 15:06:04;;;;;;;11.80;4.65;;;;;;;;;;10412444;28;20434;-71
2022/06/06 15:11:12;;;;;;;12.02;4.65;;;;;;;;;;10439926;28;20032;-76
2022/06/06 15:16:13;;;;;;;9.25;4.72;;;;;;;;;;10425984;28;20038;-73
2022/06/06 15:21:13;;;;;;;8.68;4.75;;;;;;;;;;10404436;28;20416;-73
2022/06/06 15:26:17;;;;;;;9.95;5.18;;;;;;;;;;10431606;28;20033;-69
2022/06/06 15:31:38;;;;;;;11.23;4.63;;;;;;;;;;10414678;28;20027;-71
2022/06/06 15:36:49;;;;;;;12.85;5.60;;;;;;;;;;10410551;28;20112;-73
2022/06/06 15:41:52;;;;;;;11.88;5.07;;;;;;;;;;10426723;28;20052;-72
2022/06/06 15:46:55;;;;;;;6.32;4.38;;;;;;;;;;10419020;28;20025;-73
2022/06/06 15:52:14;;;;;;;7.72;4.40;;;;;;;;;;10433834;28;20060;-72
2022/06/06 15:57:17;;;;;;;7.97;4.30;;;;;;;;;;10428632;28;20044;-77
2022/06/06 16:02:17;;;;;;;10.70;5.38;;;;;;;;;;10417930;28;20084;-74
2022/06/06 16:07:44;;;;;;;9.77;4.80;;;;;;;;;;10437901;28;20100;-75
2022/06/06 16:13:00;;;;;;;12.85;5.20;;;;;;;;;;10388013;28;20452;-70
2022/06/06 16:18:04;;;;;;;8.18;4.55;;;;;;;;;;10426497;28;20905;-71
2022/06/06 16:23:13;;;;;;;9.13;4.03;;;;;;;;;;10431679;28;20036;-73
2022/06/06 16:28:13;;;;;;;11.50;5.57;;;;;;;;;;10421510;28;20121;-74
2022/06/06 16:33:18;;;;;;;8.25;5.45;;;;;;;;;;10435507;28;20021;-70
2022/06/06 16:38:24;;;;;;;9.60;4.80;;;;;;;;;;10433512;28;20025;-72
2022/06/06 16:49:32;;;;;;;10.43;4.97;;;;;;;;;;10428056;28;20029;-72
2022/06/06 16:54:39;;;;;;;9.65;5.47;;;;;;;;;;10436591;28;20029;-71
2022/06/06 16:59:54;;;;;;;10.13;5.30;;;;;;;;;;10433462;28;20474;-75
2022/06/06 17:05:11;;;;;;;8.20;5.55;;;;;;;;;;10422017;28;20084;-73
2022/06/06 17:10:23;;;;;;;7.85;5.80;;;;;;;;;;10416836;28;20025;-70
2022/06/06 17:15:28;;;;;;;9.15;5.22;;;;;;;;;;10431423;28;20025;-71
2022/06/06 17:20:39;;;;;;;7.13;5.22;;;;;;;;;;10416650;28;20478;-70
2022/06/06 17:25:45;;;;;;;8.38;5.45;;;;;;;;;;10418384;28;20040;-74
2022/06/06 17:31:04;;;;;;;8.13;5.80;;;;;;;;;;10418978;28;20052;-77
2022/06/06 17:36:21;;;;;;;10.02;6.13;;;;;;;;;;10417206;28;20120;-72
2022/06/06 17:41:23;;;;;;;9.38;5.80;;;;;;;;;;10429382;28;20032;-74
2022/06/06 17:46:27;;;;;;;11.63;5.65;;;;;;;;;;10420651;28;20029;-72
2022/06/06 17:51:42;;;;;;;8.75;5.57;;;;;;;;;;10415790;28;20053;-75
2022/06/06 17:56:57;;;;;;;11.80;6.47;;;;;;;;;;10415746;28;20043;-71
2022/06/06 18:02:03;;;;;;;11.32;6.30;;;;;;;;;;10418868;28;20032;-71
2022/06/06 18:07:07;;;;;;;19.95;7.88;;;;;;;;;;10436288;28;20080;-76
2022/06/06 18:12:20;;;;;;;13.98;6.88;;;;;;;;;;10433609;28;20021;-72
2022/06/06 18:17:20;;;;;;;11.45;6.72;;;;;;;;;;10427006;28;20032;-72
2022/06/06 18:22:20;;;;;;;10.82;6.18;;;;;;;;;;10428501;28;20543;-72
2022/06/06 18:27:38;;;;;;;11.57;6.38;;;;;;;;;;10420188;28;20031;-74
2022/06/06 18:32:42;;;;;;;10.43;6.53;;;;;;;;;;10406198;28;20021;-73
2022/06/06 18:37:44;;;;;;;17.10;7.88;;;;;;;;;;10414885;28;20442;-72
2022/06/06 18:42:45;;;;;;;16.73;9.00;;;;;;;;;;10426761;28;20422;-74
2022/06/06 18:47:49;;;;;;;19.45;8.63;;;;;;;;;;10408274;28;20106;-71
2022/06/06 18:52:52;;;;;;;11.73;7.13;;;;;;;;;;10429823;28;20036;-74
2022/06/06 18:57:57;;;;;;;18.48;8.10;;;;;;;;;;10436555;28;20028;-72
2022/06/06 19:02:59;;;;;;;15.60;8.52;;;;;;;;;;10464979;28;20032;-76
2022/06/06 19:08:04;;;;;;;18.92;10.68;;;;;;;;;;10480802;28;20078;-75
2022/06/06 19:13:13;;;;;;;20.13;9.75;;;;;;;;;;10447809;28;20497;-72
2022/06/06 19:18:13;;;;;;;16.50;10.65;;;;;;;;;;10464618;28;20055;-73
2022/06/06 19:23:15;;;;;;;15.95;9.95;;;;;;;;;;10477668;28;20683;-73
2022/06/06 19:28:18;;;;;;;22.52;10.90;;;;;;;;;;10465866;28;20421;-72
2022/06/06 19:33:28;;;;;;;20.40;11.50;;;;;;;;;;10482224;28;20088;-74
2022/06/06 19:38:30;;;;;;;22.60;12.90;;;;;;;;;;10482955;28;20028;-75
2022/06/06 19:43:31;;;;;;;19.23;10.18;;;;;;;;;;10481145;28;20052;-74
2022/06/06 19:48:45;;;;;;;22.33;11.80;;;;;;;;;;10482633;28;20043;-75
2022/06/06 19:53:46;;;;;;;17.75;9.60;;;;;;;;;;10483078;28;20044;-76
2022/06/06 19:58:46;;;;;;;18.17;10.57;;;;;;;;;;10482809;28;20029;-71
2022/06/06 20:03:51;;;;;;;19.52;10.35;;;;;;;;;;10464611;28;20044;-73
2022/06/06 20:08:59;;;;;;;19.17;10.85;;;;;;;;;;10447168;28;20033;-72
2022/06/06 20:14:08;;;;;;;17.33;11.18;;;;;;;;;;10430980;28;20017;-76
2022/06/06 20:19:23;;;;;;;15.90;10.55;;;;;;;;;;10448336;28;20528;-73
2022/06/06 20:24:29;;;;;;;15.73;9.30;;;;;;;;;;10430938;28;20028;-72
2022/06/06 20:29:31;;;;;;;15.90;8.65;;;;;;;;;;10557760;22;20439;-74
2022/06/06 20:34:34;;;;;;;17.98;10.40;;;;;;;;;;10418282;28;20090;-75
2022/06/06 20:39:37;;;;;;;16.48;9.50;;;;;;;;;;10389920;28;20033;-71
2022/06/06 20:44:44;;;;;;;16.88;9.90;;;;;;;;;;10425965;28;20141;-75
2022/06/06 20:49:52;;;;;;;16.38;11.02;;;;;;;;;;10429087;28;20029;-72
2022/06/06 20:54:53;;;;;;;21.58;11.93;;;;;;;;;;10407671;28;20025;-72
2022/06/06 20:59:54;;;;;;;18.10;10.95;;;;;;;;;;10406884;28;20028;-75
2022/06/06 21:04:54;;;;;;;19.35;11.32;;;;;;;;;;10395581;28;20020;-73
2022/06/06 21:09:56;;;;;;;19.87;10.60;;;;;;;;;;10431868;28;20479;-71
2022/06/06 21:14:56;;;;;;;17.15;10.60;;;;;;;;;;10429847;28;20028;-75
2022/06/06 21:19:56;;;;;;;20.50;9.73;;;;;;;;;;10446754;28;20035;-74
2022/06/06 21:24:57;;;;;;;19.67;9.40;;;;;;;;;;10413199;28;20049;-74
2022/06/06 21:29:59;;;;;;;12.43;8.85;;;;;;;;;;10427459;28;20061;-73
2022/06/06 21:34:59;;;;;;;12.45;8.77;;;;;;;;;;10428275;28;20075;-71
2022/06/06 21:39:59;;;;;;;19.10;8.82;;;;;;;;;;10445823;28;20071;-72
2022/06/06 21:45:00;;;;;;;13.60;9.18;;;;;;;;;;10446255;28;20481;-75
2022/06/06 21:50:00;;;;;;;16.38;9.45;;;;;;;;;;10428517;28;20509;-77
2022/06/06 21:55:00;;;;;;;45.88;10.40;;;;;;;;;;10427804;28;20479;-76
2022/06/06 22:00:00;;;;;;;16.70;9.60;;;;;;;;;;10428473;28;20028;-73
2022/06/06 22:05:02;;;;;;;20.13;11.63;;;;;;;;;;10427087;28;20604;-72
2022/06/06 22:10:03;;;;;;;15.50;10.13;;;;;;;;;;10426539;28;20494;-73
2022/06/06 22:15:03;;;;;;;17.92;10.68;;;;;;;;;;10425866;28;20017;-70
2022/06/06 22:20:05;;;;;;;13.97;9.00;;;;;;;;;;10427103;28;20019;-73
2022/06/06 22:25:06;;;;;;;18.10;7.43;;;;;;;;;;10426940;28;20259;-76
2022/06/06 22:30:06;;;;;;;20.07;7.10;;;;;;;;;;10424177;28;20539;-77
2022/06/06 22:35:07;;;;;;;11.80;7.32;;;;;;;;;;10444526;28;20271;-73
2022/06/06 22:40:07;;;;;;;17.65;9.00;;;;;;;;;;10443698;28;20036;-78
2022/06/06 22:45:08;;;;;;;18.40;7.75;;;;;;;;;;10426592;28;20028;-77
2022/06/06 22:50:09;;;;;;;20.67;7.65;;;;;;;;;;10444303;28;20565;-76
2022/06/06 22:55:09;;;;;;;18.65;7.65;;;;;;;;;;10425008;28;20087;-76
2022/06/06 23:00:10;;;;;;;20.85;8.77;;;;;;;;;;10426866;28;20025;-76
2022/06/06 23:05:11;;;;;;;14.63;7.80;;;;;;;;;;10427991;28;20039;-77
2022/06/06 23:10:12;;;;;;;13.50;6.93;;;;;;;;;;10442635;28;20040;-72
2022/06/06 23:15:12;;;;;;;10.52;6.53;;;;;;;;;;10425321;28;20025;-72
2022/06/06 23:20:13;;;;;;;12.68;5.95;;;;;;;;;;10571815;23;20453;-73
2022/06/06 23:25:13;;;;;;;12.25;5.50;;;;;;;;;;10508614;28;20154;-76
2022/06/06 23:30:13;;;;;;;13.30;5.97;;;;;;;;;;10470503;28;20032;-74
2022/06/06 23:35:14;;;;;;;9.70;5.90;;;;;;;;;;10466676;28;20116;-71
2022/06/06 23:40:18;;;;;;;9.57;4.60;;;;;;;;;;10487203;28;20032;-75
2022/06/06 23:50:40;;;;;;;7.63;4.35;;;;;;;;;;10492846;28;20033;-75
2022/06/06 23:55:41;;;;;;;6.65;4.78;;;;;;;;;;10515184;28;20028;-74
